Terminal Aerodrome Forecast
Issued by NWS

Home | Current Version | Previous Version | Text Only | Print | Product List | Glossary On
Versions: 1 2 3 4 5 6 7 8 9 10 11 12 13 14 15 16 17 18 19 20 21 22 23 24 25 26 27 28 29 30 31 32 33 34 35 36 37 38 39 40 41 42 43 44 45 46 47 48 49 50
760
FTUS46 KEKA 201754 CCA
TAFACV
TAF COR
KACV 201754Z 2018/2118 16007KT P6SM VCSH SCT020 BKN035
      WS020/21028KT
     FM202000 17006KT P6SM VCSH SCT020 BKN040
     FM210300 16015G25KT 5SM -RA BR SCT025 OVC045
     FM210600 16020G28KT 6SM -SHRA BR SCT025 OVC040
      TEMPO 2108/2112 20025G40KT 4SM -TSRA BKN025CB
     FM211500 20010G18KT 6SM -SHRA BR BKN025=

USA.gov is the U.S. government's official web portal to all federal, state and local government web resources and services.